Ag Nektarios Aiginas — SX7083 — position and weather

sailwx.info

Track history (hours):
 
Tides and Currents Weather Stations Pressure Air Temp Water Temp Dewpoint Dewpoint Depression Visibility Wind Speed Wind Dir Waves Ship Positions

Ag Nektarios Aiginas

Last reported at 2017-Mar-23 12:33 UTC. Time now 2017-Mar-23 12:32 UTC.
Position N 37°47' E 023°26'.

Length 75 m; draft 2.7 m.

Type: Passenger vessel. MMSI: 237021400.

Date/timePositionNaut miles runAvg speedWind from/ knotsBaromVisibWave heightAir tempDewpointWater temp
2017-Mar-23 12:33N 37°47' E 023°26'0 0.5
2017-Mar-23 11:33N 37°47' E 023°26'1313.0
2017-Mar-23 10:33N 37°56' E 023°37'1 0.9
2017-Mar-23 09:33N 37°55' E 023°36'1312.6
2017-Mar-23 08:33N 37°46' E 023°25'3 3.0
2017-Mar-23 07:30N 37°48' E 023°28'11 0.8
2017-Mar-22 17:33N 37°56' E 023°38'1312.9
2017-Mar-22 16:33N 37°47' E 023°26'1 0.8
2017-Mar-22 15:32N 37°47' E 023°26'1212.7
2017-Mar-22 14:33N 37°55' E 023°37'13 6.4
2017-Mar-22 12:33N 37°46' E 023°25'1 0.6
2017-Mar-22 11:33N 37°46' E 023°25'1312.7
2017-Mar-22 10:34N 37°55' E 023°36'1 1.1
2017-Mar-22 09:34N 37°56' E 023°37'1312.8
2017-Mar-22 08:33N 37°46' E 023°26'4 3.5
2017-Mar-22 07:25N 37°49' E 023°30'9 0.7
2017-Mar-21 17:33N 37°56' E 023°37'1313.0
2017-Mar-21 16:33N 37°47' E 023°26'1 0.7
2017-Mar-21 15:28N 37°46' E 023°25'1213.0
2017-Mar-21 14:33N 37°54' E 023°36'2 2.1
2017-Mar-21 13:33N 37°56' E 023°37'1313.0
2017-Mar-21 12:33N 37°47' E 023°26'1 1.3
2017-Mar-21 11:33N 37°46' E 023°25'1312.8
2017-Mar-21 10:33N 37°55' E 023°36'2 1.6
2017-Mar-21 09:33N 37°56' E 023°37'1312.8
2017-Mar-21 08:33N 37°47' E 023°26'2 1.7
2017-Mar-21 07:33N 37°48' E 023°28'11 0.8
2017-Mar-20 17:33N 37°56' E 023°37'1313.3
2017-Mar-20 16:33N 37°47' E 023°26'2 1.6
2017-Mar-20 15:34N 37°45' E 023°25'1312.6
2017-Mar-20 14:33N 37°55' E 023°35'2 2.1
2017-Mar-20 13:33N 37°56' E 023°37'1312.9
2017-Mar-20 12:33N 37°47' E 023°26'0 0.2
2017-Mar-20 11:31N 37°47' E 023°26'1111.9
2017-Mar-20 10:33N 37°55' E 023°36'1 1.1
2017-Mar-20 09:33N 37°56' E 023°37'1513.2
2017-Mar-20 08:27N 37°45' E 023°25'4 4.4
2017-Mar-20 07:33N 37°48' E 023°28'9 0.7
2017-Mar-19 17:33N 37°55' E 023°36'1312.8
2017-Mar-19 16:34N 37°46' E 023°25'0 0.4
2017-Mar-19 15:32N 37°46' E 023°25'1313.0
2017-Mar-19 14:34N 37°55' E 023°36'1 1.0
2017-Mar-19 13:34N 37°56' E 023°37'1312.8
2017-Mar-19 12:34N 37°46' E 023°25'1 0.7
2017-Mar-19 11:33N 37°46' E 023°25'1312.8
2017-Mar-19 10:34N 37°55' E 023°36'1 0.6
2017-Mar-19 09:33N 37°56' E 023°36'1312.6
2017-Mar-19 08:34N 37°47' E 023°25'3 3.2
2017-Mar-19 07:32N 37°48' E 023°29'10 0.7
2017-Mar-18 17:34N 37°56' E 023°37'1313.1
2017-Mar-18 16:33N 37°47' E 023°26'1 0.9
2017-Mar-18 15:30N 37°46' E 023°25'1212.9
2017-Mar-18 14:33N 37°55' E 023°35'2 2.1
2017-Mar-18 13:33N 37°56' E 023°37'1312.9
2017-Mar-18 12:33N 37°47' E 023°26'2 1.6
2017-Mar-18 11:32N 37°46' E 023°25'1212.5
2017-Mar-18 10:33N 37°55' E 023°35'0 0.5
2017-Mar-18 09:33N 37°55' E 023°36'1312.7
2017-Mar-18 08:33N 37°46' E 023°25'5 4.5
2017-Mar-18 07:24N 37°49' E 023°30'9 0.6
2017-Mar-17 17:33N 37°56' E 023°37'1312.6
2017-Mar-17 16:33N 37°47' E 023°26'1 1.3
2017-Mar-17 15:30N 37°46' E 023°25'1213.0
2017-Mar-17 14:33N 37°55' E 023°36'2 1.9
2017-Mar-17 13:34N 37°56' E 023°37'1312.9
2017-Mar-17 12:33N 37°47' E 023°26'1 0.7
2017-Mar-17 11:32N 37°46' E 023°25'1312.8
2017-Mar-17 10:33N 37°55' E 023°36'1 0.9
2017-Mar-17 09:33N 37°56' E 023°37'1413.7
2017-Mar-17 08:31N 37°45' E 023°25'5 4.9
2017-Mar-17 07:26N 37°49' E 023°30'9 0.7
2017-Mar-16 17:33N 37°56' E 023°37'1312.7
2017-Mar-16 16:33N 37°47' E 023°26'2 2.1
2017-Mar-16 15:32N 37°48' E 023°28'1111.5
2017-Mar-16 14:33N 37°56' E 023°38'0 0.5
2017-Mar-16 13:33N 37°56' E 023°37'1413.9
2017-Mar-16 12:32N 37°46' E 023°25'1 1.4
2017-Mar-16 11:32N 37°47' E 023°26'1111.7
2017-Mar-16 10:33N 37°55' E 023°36'1 1.4
2017-Mar-16 09:33N 37°54' E 023°36'1212.1
2017-Mar-16 08:33N 37°45' E 023°25'5 4.4
2017-Mar-16 07:30N 37°48' E 023°29'10 0.7
2017-Mar-15 17:33N 37°56' E 023°37'1413.5
2017-Mar-15 16:33N 37°47' E 023°26'0 0.4
2017-Mar-15 15:32N 37°46' E 023°25'1212.3
2017-Mar-15 14:33N 37°55' E 023°36'2 1.9
2017-Mar-15 13:33N 37°56' E 023°37'1313.0
2017-Mar-15 12:33N 37°47' E 023°26'1 1.2
2017-Mar-15 11:33N 37°46' E 023°25'1212.4
2017-Mar-15 10:33N 37°55' E 023°36'1 1.5
2017-Mar-15 09:33N 37°56' E 023°37'1312.7
2017-Mar-15 08:33N 37°47' E 023°26'1 1.5
2017-Mar-15 07:33N 37°48' E 023°27'11 0.8
2017-Mar-14 17:33N 37°56' E 023°37'1212.5
2017-Mar-14 16:33N 37°47' E 023°26'1 0.9
2017-Mar-14 15:29N 37°46' E 023°25'1213.1
2017-Mar-14 14:33N 37°55' E 023°36'2 1.5
2017-Mar-14 13:33N 37°56' E 023°37'1312.8
2017-Mar-14 12:33N 37°47' E 023°26'1 0.9
2017-Mar-14 11:32N 37°46' E 023°25'1212.8
2017-Mar-14 10:33N 37°55' E 023°36'7 4.4
2017-Mar-14 09:04N 37°50' E 023°31'612.7
2017-Mar-14 08:34N 37°46' E 023°25'4 4.0
2017-Mar-14 07:33N 37°48' E 023°29'10 0.7
2017-Mar-13 17:33N 37°56' E 023°37'1312.5
2017-Mar-13 16:33N 37°47' E 023°26'1 1.0
2017-Mar-13 15:33N 37°46' E 023°25'1312.7
2017-Mar-13 14:33N 37°55' E 023°36'1 0.8
2017-Mar-13 13:33N 37°56' E 023°36'1212.4
2017-Mar-13 12:33N 37°47' E 023°26'  
Track history (hours):
 
Tides and Currents Weather Stations Pressure Air Temp Water Temp Dewpoint Dewpoint Depression Visibility Wind Speed Wind Dir Waves Ship Positions

Ag Nektarios Aiginas

Last reported at 2017-Mar-23 12:33 UTC. Time now 2017-Mar-23 12:32 UTC.
Position N 37°47' E 023°26'.

Length 75 m; draft 2.7 m.

Type: Passenger vessel. MMSI: 237021400.

Date/timePositionNaut miles runAvg speedWind from/ knotsBaromVisibWave heightAir tempDewpointWater temp
2017-Mar-23 12:33N 37°47' E 023°26'0 0.5
2017-Mar-23 11:33N 37°47' E 023°26'1313.0
2017-Mar-23 10:33N 37°56' E 023°37'1 0.9
2017-Mar-23 09:33N 37°55' E 023°36'1312.6
2017-Mar-23 08:33N 37°46' E 023°25'3 3.0
2017-Mar-23 07:30N 37°48' E 023°28'11 0.8
2017-Mar-22 17:33N 37°56' E 023°38'1312.9
2017-Mar-22 16:33N 37°47' E 023°26'1 0.8
2017-Mar-22 15:32N 37°47' E 023°26'1212.7
2017-Mar-22 14:33N 37°55' E 023°37'13 6.4
2017-Mar-22 12:33N 37°46' E 023°25'1 0.6
2017-Mar-22 11:33N 37°46' E 023°25'1312.7
2017-Mar-22 10:34N 37°55' E 023°36'1 1.1
2017-Mar-22 09:34N 37°56' E 023°37'1312.8
2017-Mar-22 08:33N 37°46' E 023°26'4 3.5
2017-Mar-22 07:25N 37°49' E 023°30'9 0.7
2017-Mar-21 17:33N 37°56' E 023°37'1313.0
2017-Mar-21 16:33N 37°47' E 023°26'1 0.7
2017-Mar-21 15:28N 37°46' E 023°25'1213.0
2017-Mar-21 14:33N 37°54' E 023°36'2 2.1
2017-Mar-21 13:33N 37°56' E 023°37'1313.0
2017-Mar-21 12:33N 37°47' E 023°26'1 1.3
2017-Mar-21 11:33N 37°46' E 023°25'1312.8
2017-Mar-21 10:33N 37°55' E 023°36'2 1.6
2017-Mar-21 09:33N 37°56' E 023°37'1312.8
2017-Mar-21 08:33N 37°47' E 023°26'2 1.7
2017-Mar-21 07:33N 37°48' E 023°28'11 0.8
2017-Mar-20 17:33N 37°56' E 023°37'1313.3
2017-Mar-20 16:33N 37°47' E 023°26'2 1.6
2017-Mar-20 15:34N 37°45' E 023°25'1312.6
2017-Mar-20 14:33N 37°55' E 023°35'2 2.1
2017-Mar-20 13:33N 37°56' E 023°37'1312.9
2017-Mar-20 12:33N 37°47' E 023°26'0 0.2
2017-Mar-20 11:31N 37°47' E 023°26'1111.9
2017-Mar-20 10:33N 37°55' E 023°36'1 1.1
2017-Mar-20 09:33N 37°56' E 023°37'1513.2
2017-Mar-20 08:27N 37°45' E 023°25'4 4.4
2017-Mar-20 07:33N 37°48' E 023°28'9 0.7
2017-Mar-19 17:33N 37°55' E 023°36'1312.8
2017-Mar-19 16:34N 37°46' E 023°25'0 0.4
2017-Mar-19 15:32N 37°46' E 023°25'1313.0
2017-Mar-19 14:34N 37°55' E 023°36'1 1.0
2017-Mar-19 13:34N 37°56' E 023°37'1312.8
2017-Mar-19 12:34N 37°46' E 023°25'1 0.7
2017-Mar-19 11:33N 37°46' E 023°25'1312.8
2017-Mar-19 10:34N 37°55' E 023°36'1 0.6
2017-Mar-19 09:33N 37°56' E 023°36'1312.6
2017-Mar-19 08:34N 37°47' E 023°25'3 3.2
2017-Mar-19 07:32N 37°48' E 023°29'10 0.7
2017-Mar-18 17:34N 37°56' E 023°37'1313.1
2017-Mar-18 16:33N 37°47' E 023°26'1 0.9
2017-Mar-18 15:30N 37°46' E 023°25'1212.9
2017-Mar-18 14:33N 37°55' E 023°35'2 2.1
2017-Mar-18 13:33N 37°56' E 023°37'1312.9
2017-Mar-18 12:33N 37°47' E 023°26'2 1.6
2017-Mar-18 11:32N 37°46' E 023°25'1212.5
2017-Mar-18 10:33N 37°55' E 023°35'0 0.5
2017-Mar-18 09:33N 37°55' E 023°36'1312.7
2017-Mar-18 08:33N 37°46' E 023°25'5 4.5
2017-Mar-18 07:24N 37°49' E 023°30'9 0.6
2017-Mar-17 17:33N 37°56' E 023°37'1312.6
2017-Mar-17 16:33N 37°47' E 023°26'1 1.3
2017-Mar-17 15:30N 37°46' E 023°25'1213.0
2017-Mar-17 14:33N 37°55' E 023°36'2 1.9
2017-Mar-17 13:34N 37°56' E 023°37'1312.9
2017-Mar-17 12:33N 37°47' E 023°26'1 0.7
2017-Mar-17 11:32N 37°46' E 023°25'1312.8
2017-Mar-17 10:33N 37°55' E 023°36'1 0.9
2017-Mar-17 09:33N 37°56' E 023°37'1413.7
2017-Mar-17 08:31N 37°45' E 023°25'5 4.9
2017-Mar-17 07:26N 37°49' E 023°30'9 0.7
2017-Mar-16 17:33N 37°56' E 023°37'1312.7
2017-Mar-16 16:33N 37°47' E 023°26'2 2.1
2017-Mar-16 15:32N 37°48' E 023°28'1111.5
2017-Mar-16 14:33N 37°56' E 023°38'0 0.5
2017-Mar-16 13:33N 37°56' E 023°37'1413.9
2017-Mar-16 12:32N 37°46' E 023°25'1 1.4
2017-Mar-16 11:32N 37°47' E 023°26'1111.7
2017-Mar-16 10:33N 37°55' E 023°36'1 1.4
2017-Mar-16 09:33N 37°54' E 023°36'1212.1
2017-Mar-16 08:33N 37°45' E 023°25'5 4.4
2017-Mar-16 07:30N 37°48' E 023°29'10 0.7
2017-Mar-15 17:33N 37°56' E 023°37'1413.5
2017-Mar-15 16:33N 37°47' E 023°26'0 0.4
2017-Mar-15 15:32N 37°46' E 023°25'1212.3
2017-Mar-15 14:33N 37°55' E 023°36'2 1.9
2017-Mar-15 13:33N 37°56' E 023°37'1313.0
2017-Mar-15 12:33N 37°47' E 023°26'1 1.2
2017-Mar-15 11:33N 37°46' E 023°25'1212.4
2017-Mar-15 10:33N 37°55' E 023°36'1 1.5
2017-Mar-15 09:33N 37°56' E 023°37'1312.7
2017-Mar-15 08:33N 37°47' E 023°26'1 1.5
2017-Mar-15 07:33N 37°48' E 023°27'11 0.8
2017-Mar-14 17:33N 37°56' E 023°37'1212.5
2017-Mar-14 16:33N 37°47' E 023°26'1 0.9
2017-Mar-14 15:29N 37°46' E 023°25'1213.1
2017-Mar-14 14:33N 37°55' E 023°36'2 1.5
2017-Mar-14 13:33N 37°56' E 023°37'1312.8
2017-Mar-14 12:33N 37°47' E 023°26'1 0.9
2017-Mar-14 11:32N 37°46' E 023°25'1212.8
2017-Mar-14 10:33N 37°55' E 023°36'7 4.4
2017-Mar-14 09:04N 37°50' E 023°31'612.7
2017-Mar-14 08:34N 37°46' E 023°25'4 4.0
2017-Mar-14 07:33N 37°48' E 023°29'10 0.7
2017-Mar-13 17:33N 37°56' E 023°37'1312.5
2017-Mar-13 16:33N 37°47' E 023°26'1 1.0
2017-Mar-13 15:33N 37°46' E 023°25'1312.7
2017-Mar-13 14:33N 37°55' E 023°36'1 0.8
2017-Mar-13 13:33N 37°56' E 023°36'1212.4
2017-Mar-13 12:33N 37°47' E 023°26'  

Dump ship's entire track history